createdAt,value
2022-12-28T00:01:40.207Z,341.41935
2022-12-28T00:06:42.031Z,338.87179
2022-12-28T00:11:43.832Z,338.87179
2022-12-28T00:16:45.817Z,344
2022-12-28T00:21:48.122Z,341.41935
2022-12-28T00:26:50.133Z,344
2022-12-28T00:31:52.081Z,341.41935
2022-12-28T00:37:10.259Z,341.41935
2022-12-28T00:42:14.135Z,329
2022-12-28T00:47:15.747Z,312.86228
2022-12-28T00:52:17.865Z,304.23392
2022-12-28T00:57:19.488Z,312.86228
2022-12-28T01:02:21.136Z,321.91411
2022-12-28T01:07:23.023Z,326.6087
2022-12-28T01:12:24.939Z,329
2022-12-28T01:17:26.923Z,333.87342
2022-12-28T01:22:29.252Z,338.87179
2022-12-28T01:27:31.108Z,346.61438
2022-12-28T01:32:33.215Z,349.26316
2022-12-28T01:37:35.130Z,349.26316
2022-12-28T01:42:37.333Z,351.94702
2022-12-28T01:47:39.268Z,354.66667
2022-12-28T01:52:41.810Z,354.66667
2022-12-28T01:57:43.403Z,354.66667
2022-12-28T02:02:45.114Z,354.66667
2022-12-28T02:07:46.790Z,351.94702
2022-12-28T02:12:48.432Z,354.66667
2022-12-28T02:17:50.108Z,354.66667
2022-12-28T02:22:52.690Z,354.66667
2022-12-28T02:27:54.228Z,354.66667
2022-12-28T02:32:55.756Z,351.94702
2022-12-28T02:37:57.616Z,349.26316
2022-12-28T02:42:59.148Z,351.94702
2022-12-28T02:48:00.651Z,346.61438
2022-12-28T02:53:02.883Z,331.42138
2022-12-28T02:58:04.414Z,326.6087
2022-12-28T03:03:06.219Z,317.33333
2022-12-28T03:08:08.023Z,308.49704
2022-12-28T03:13:09.684Z,304.23392
2022-12-28T03:18:11.248Z,304.23392
2022-12-28T03:23:14.284Z,306.35294
2022-12-28T03:28:16.215Z,310.66667
2022-12-28T03:33:17.836Z,319.60976
2022-12-28T03:38:19.402Z,321.91411
2022-12-28T03:43:21.238Z,333.87342
2022-12-28T03:48:23.040Z,333.87342
2022-12-28T03:53:25.147Z,336.35669
2022-12-28T03:58:27.114Z,336.35669
2022-12-28T04:03:29.088Z,338.87179
2022-12-28T04:08:30.773Z,333.87342
2022-12-28T04:13:32.671Z,333.87342
2022-12-28T04:18:34.451Z,333.87342
2022-12-28T04:23:36.449Z,329
2022-12-28T04:28:38.362Z,319.60976
2022-12-28T04:33:40.092Z,319.60976
2022-12-28T04:38:41.733Z,331.42138
2022-12-28T04:43:43.551Z,336.35669
2022-12-28T04:48:45.657Z,331.42138
2022-12-28T04:53:47.635Z,336.35669
2022-12-28T04:58:49.415Z,331.42138
2022-12-28T05:03:55.714Z,341.41935
2022-12-28T05:08:59.218Z,346.61438
2022-12-28T05:14:00.950Z,346.61438
2022-12-28T05:19:02.949Z,357.42282
2022-12-28T05:24:05.053Z,377.80282
2022-12-28T05:29:06.765Z,390.37681
2022-12-28T05:34:09.539Z,393.63504
2022-12-28T05:39:11.323Z,414.22901
2022-12-28T05:44:12.961Z,396.94118
2022-12-28T05:49:14.876Z,407.15789
2022-12-28T05:54:16.660Z,390.37681
2022-12-28T05:59:18.181Z,403.70149
2022-12-28T06:04:19.743Z,414.22901
2022-12-28T06:09:21.402Z,421.51938
2022-12-28T06:14:23.228Z,425.25
2022-12-28T06:19:24.704Z,448.91803
2022-12-28T06:24:26.485Z,466.0339
2022-12-28T06:29:28.077Z,457.33333
2022-12-28T06:34:29.616Z,461.64706
2022-12-28T06:39:31.342Z,498.95495
2022-12-28T06:44:33.118Z,484.35088
2022-12-28T06:49:34.862Z,494
2022-12-28T06:54:36.836Z,484.35088
2022-12-28T06:59:39.040Z,489.13274
2022-12-28T07:04:40.894Z,470.49573
2022-12-28T07:09:42.706Z,475.03448
2022-12-28T07:14:44.571Z,484.35088
2022-12-28T07:19:46.383Z,509.13761
2022-12-28T07:24:48.412Z,525.13208
2022-12-28T07:29:50.311Z,519.70093
2022-12-28T07:34:52.361Z,494
2022-12-28T07:39:54.286Z,470.49573
2022-12-28T07:44:56.093Z,504
2022-12-28T07:49:58.167Z,525.13208
2022-12-28T07:55:00.379Z,479.65217
2022-12-28T08:00:02.371Z,504
2022-12-28T08:05:04.154Z,509.13761
2022-12-28T08:10:05.979Z,509.13761
2022-12-28T08:15:07.940Z,498.95495
2022-12-28T08:20:09.855Z,536.30769
2022-12-28T08:25:11.910Z,514.37037
2022-12-28T08:30:13.721Z,484.35088
2022-12-28T08:35:15.617Z,519.70093
2022-12-28T08:40:17.254Z,536.30769
2022-12-28T08:45:18.978Z,560
2022-12-28T08:50:22.764Z,572.57143
2022-12-28T08:55:27.298Z,525.13208
2022-12-28T09:00:29.073Z,553.90099
2022-12-28T09:05:35.907Z,572.57143
2022-12-28T09:10:41.358Z,498.95495
2022-12-28T09:15:42.918Z,560
2022-12-28T09:20:48.144Z,525.13208
2022-12-28T09:25:50.901Z,572.57143
2022-12-28T09:30:52.606Z,547.92157
2022-12-28T09:35:54.099Z,525.13208
2022-12-28T09:40:55.769Z,536.30769
2022-12-28T09:45:57.300Z,519.70093
2022-12-28T09:50:58.830Z,542.05825
2022-12-28T09:56:00.759Z,530.66667
2022-12-28T10:01:02.781Z,519.70093
2022-12-28T10:06:04.351Z,525.13208
2022-12-28T10:11:05.993Z,509.13761
2022-12-28T10:16:07.793Z,525.13208
2022-12-28T10:21:09.301Z,525.13208
2022-12-28T10:26:11.287Z,542.05825
2022-12-28T10:31:13.271Z,536.30769
2022-12-28T10:36:15.433Z,530.66667
2022-12-28T10:41:19.138Z,547.92157
2022-12-28T10:46:20.837Z,547.92157
2022-12-28T10:51:22.874Z,504
2022-12-28T10:56:24.748Z,530.66667
2022-12-28T11:01:26.391Z,519.70093
2022-12-28T11:06:28.272Z,542.05825
2022-12-28T11:11:29.991Z,547.92157
2022-12-28T11:16:31.926Z,560
2022-12-28T11:21:34.189Z,579.05155
2022-12-28T11:26:36.368Z,599.31915
2022-12-28T11:31:38.095Z,536.30769
2022-12-28T11:36:39.889Z,566.22222
2022-12-28T11:41:51.204Z,553.90099
2022-12-28T11:47:12.539Z,566.22222
2022-12-28T11:52:14.344Z,566.22222
2022-12-28T11:57:16.746Z,525.13208
2022-12-28T12:02:18.289Z,494
2022-12-28T12:07:19.830Z,479.65217
2022-12-28T12:12:21.505Z,504
2022-12-28T12:17:22.996Z,461.64706
2022-12-28T12:22:24.487Z,448.91803
2022-12-28T12:27:26.194Z,448.91803
2022-12-28T12:32:27.964Z,475.03448
2022-12-28T12:37:29.471Z,466.0339
2022-12-28T12:42:31.130Z,466.0339
2022-12-28T12:47:32.666Z,504
2022-12-28T12:52:38.066Z,479.65217
2022-12-28T12:57:42.627Z,514.37037
2022-12-28T13:02:44.202Z,519.70093
2022-12-28T13:07:45.739Z,536.30769
2022-12-28T13:12:47.397Z,536.30769
2022-12-28T13:17:50.146Z,542.05825
2022-12-28T13:22:54.210Z,509.13761
2022-12-28T13:27:56.600Z,509.13761
2022-12-28T13:32:58.431Z,519.70093
2022-12-28T13:37:59.999Z,599.31915
2022-12-28T13:43:01.754Z,592.42105
2022-12-28T13:48:03.674Z,620.92308
2022-12-28T13:53:05.539Z,592.42105
2022-12-28T13:58:08.095Z,579.05155
2022-12-28T14:03:09.565Z,566.22222
2022-12-28T14:08:11.106Z,560
2022-12-28T14:13:12.610Z,585.66667
2022-12-28T14:18:14.126Z,489.13274
2022-12-28T14:23:15.972Z,733.74359
2022-12-28T14:28:17.640Z,754.52632
2022-12-28T14:33:24.357Z,754.52632
2022-12-28T14:38:26.638Z,754.52632
2022-12-28T14:43:28.456Z,714
2022-12-28T14:48:30.280Z,714
2022-12-28T14:53:33.242Z,695.21951
2022-12-28T14:58:35.785Z,677.33333
2022-12-28T15:03:37.764Z,714
2022-12-28T15:08:39.640Z,776.43243
2022-12-28T15:13:41.839Z,799.55556
2022-12-28T15:18:43.953Z,787.83562
2022-12-28T15:23:45.801Z,776.43243
2022-12-28T15:28:47.982Z,776.43243
2022-12-28T15:33:49.943Z,744
2022-12-28T15:38:52.302Z,695.21951
2022-12-28T15:43:54.242Z,733.74359
2022-12-28T15:48:56.120Z,660.27907
2022-12-28T15:53:57.981Z,444.81301
2022-12-28T15:59:01.511Z,403.70149
2022-12-28T16:04:03.406Z,400.2963
2022-12-28T16:09:05.294Z,396.94118
2022-12-28T16:14:07.434Z,387.16547
2022-12-28T16:19:09.273Z,374.76923
2022-12-28T16:24:11.083Z,387.16547
2022-12-28T16:29:13.563Z,475.03448
2022-12-28T16:34:15.396Z,536.30769
2022-12-28T16:39:17.182Z,547.92157
2022-12-28T16:44:18.882Z,504
2022-12-28T16:49:20.639Z,514.37037
2022-12-28T16:54:22.171Z,530.66667
2022-12-28T16:59:24.570Z,514.37037
2022-12-28T17:04:26.152Z,509.13761
2022-12-28T17:09:27.928Z,479.65217
2022-12-28T17:14:37.452Z,514.37037
2022-12-28T17:19:40.153Z,525.13208
2022-12-28T17:24:42.003Z,489.13274
2022-12-28T17:29:44.503Z,514.37037
2022-12-28T17:34:46.319Z,514.37037
2022-12-28T17:39:48.024Z,514.37037
2022-12-28T17:44:50.068Z,547.92157
2022-12-28T17:49:52.177Z,606.36559
2022-12-28T17:54:54.392Z,579.05155
2022-12-28T17:59:57.691Z,553.90099
2022-12-28T18:04:59.425Z,553.90099
2022-12-28T18:10:01.131Z,560
2022-12-28T18:15:03.278Z,536.30769
2022-12-28T18:20:05.057Z,514.37037
2022-12-28T18:25:06.644Z,489.13274
2022-12-28T18:30:09.082Z,457.33333
2022-12-28T18:35:10.659Z,461.64706
2022-12-28T18:40:12.167Z,470.49573
2022-12-28T18:45:13.763Z,448.91803
2022-12-28T18:50:15.749Z,504
2022-12-28T18:55:19.853Z,509.13761
2022-12-28T19:00:23.388Z,599.31915
2022-12-28T19:05:24.913Z,509.13761
2022-12-28T19:10:26.475Z,525.13208
2022-12-28T19:15:28.202Z,530.66667
2022-12-28T19:20:29.990Z,530.66667
2022-12-28T19:25:31.565Z,536.30769
2022-12-28T19:30:33.310Z,514.37037
2022-12-28T19:35:34.821Z,504
2022-12-28T19:40:36.606Z,519.70093
2022-12-28T19:45:38.719Z,530.66667
2022-12-28T19:50:40.607Z,525.13208
2022-12-28T19:55:42.536Z,519.70093
2022-12-28T20:00:45.223Z,536.30769
2022-12-28T20:05:47.229Z,519.70093
2022-12-28T20:10:49.067Z,536.30769
2022-12-28T20:15:51.174Z,560
2022-12-28T20:21:18.700Z,620.92308
2022-12-28T20:26:21.082Z,628.44444
2022-12-28T20:31:23.103Z,572.57143
2022-12-28T20:36:25.559Z,585.66667
2022-12-28T20:41:27.209Z,525.13208
2022-12-28T20:46:29.017Z,530.66667
2022-12-28T20:51:30.625Z,542.05825
2022-12-28T20:56:32.709Z,530.66667
2022-12-28T21:01:37.092Z,509.13761
2022-12-28T21:06:40.573Z,489.13274
2022-12-28T21:11:42.554Z,536.30769
2022-12-28T21:16:44.693Z,514.37037
2022-12-28T21:21:46.680Z,519.70093
2022-12-28T21:26:49.574Z,519.70093
2022-12-28T21:31:52.058Z,504
2022-12-28T21:36:53.763Z,484.35088
2022-12-28T21:41:55.708Z,479.65217
2022-12-28T21:46:57.693Z,479.65217
2022-12-28T21:51:59.569Z,514.37037
2022-12-28T21:57:03.641Z,498.95495
2022-12-28T22:02:07.518Z,536.30769
2022-12-28T22:07:09.205Z,606.36559
2022-12-28T22:12:10.999Z,525.13208
2022-12-28T22:17:14.656Z,479.65217
2022-12-28T22:22:16.417Z,489.13274
2022-12-28T22:32:29.277Z,453.09091
2022-12-28T22:37:30.821Z,484.35088
2022-12-28T22:42:32.409Z,519.70093
2022-12-28T22:47:33.924Z,530.66667
2022-12-28T22:52:35.607Z,530.66667
2022-12-28T22:57:37.361Z,509.13761
2022-12-28T23:02:39.863Z,504
2022-12-28T23:07:41.531Z,514.37037
2022-12-28T23:12:43.519Z,530.66667
2022-12-28T23:17:45.613Z,514.37037
2022-12-28T23:22:47.438Z,509.13761
2022-12-28T23:27:49.280Z,542.05825
2022-12-28T23:32:51.409Z,514.37037
2022-12-28T23:37:53.222Z,525.13208
2022-12-28T23:42:55.043Z,525.13208
2022-12-28T23:47:57.162Z,572.57143
2022-12-28T23:52:59.004Z,606.36559
2022-12-28T23:58:00.848Z,599.31915
